Time;durP1;ratioP1;P1;durP2;ratioP2;P2;SDS_P1;SDS_P2;PMS_P1;PMS_P2;Temp;Humidity;BMP_temperature;BMP_pressure;BME280_temperature;BME280_humidity;BME280_pressure;Samples;Min_cycle;Max_cycle;Signal;HPM_P1;HPM_P2
2022/08/03 00:01:04;;;;;;;7.78;2.00;;;;;;;14.00;72.66;99882.97;1715363;82;20914;-59
2022/08/03 00:03:31;;;;;;;4.45;1.17;;;;;;;14.04;72.72;99877.89;1716433;81;21086;-60
2022/08/03 00:05:58;;;;;;;4.20;1.10;;;;;;;14.07;72.68;99881.65;1718365;82;20942;-59
2022/08/03 00:08:25;;;;;;;7.37;1.15;;;;;;;14.07;72.69;99871.15;1714975;81;20931;-60
2022/08/03 00:10:52;;;;;;;6.47;1.67;;;;;;;14.09;72.73;99865.34;1708394;83;20888;-60
2022/08/03 00:13:18;;;;;;;3.67;1.57;;;;;;;14.12;72.76;99867.42;1713530;83;20950;-60
2022/08/03 00:15:45;;;;;;;4.43;1.50;;;;;;;14.17;72.69;99862.71;1706856;83;21043;-60
2022/08/03 00:18:12;;;;;;;4.37;1.30;;;;;;;14.17;72.69;99862.71;1708422;83;21465;-59
2022/08/03 00:20:38;;;;;;;5.77;1.20;;;;;;;14.20;72.81;99865.16;1700870;81;21040;-60
2022/08/03 00:23:05;;;;;;;3.42;1.10;;;;;;;14.23;72.76;99868.94;1711250;82;21604;-60
2022/08/03 00:25:34;;;;;;;4.28;1.27;;;;;;;14.27;72.89;99863.86;1704051;83;20904;-58
2022/08/03 00:28:03;;;;;;;8.83;1.50;;;;;;;14.29;72.86;99856.74;1706142;81;21011;-60
2022/08/03 00:30:31;;;;;;;5.00;1.30;;;;;;;14.31;72.89;99854.84;1729019;81;20971;-59
2022/08/03 00:32:58;;;;;;;3.87;1.17;;;;;;;14.37;72.94;99858.44;1709468;83;21357;-59
2022/08/03 00:35:25;;;;;;;;;;;;;;;14.39;72.87;99856.54;1703544;83;20991;-59
2022/08/03 00:37:51;;;;;;;3.00;1.20;;;;;;;14.41;72.98;99853.36;1707979;83;20112;-60
2022/08/03 00:40:19;;;;;;;3.40;1.30;;;;;;;14.43;73.02;99848.86;1708437;83;21909;-60
2022/08/03 00:43:02;;;;;;;6.92;1.65;;;;;;;14.46;73.04;99851.30;1703741;83;20881;-59
2022/08/03 00:45:33;;;;;;;6.70;1.12;;;;;;;14.50;73.02;99847.53;1713645;83;20953;-59
2022/08/03 00:48:00;;;;;;;5.72;1.20;;;;;;;14.55;73.12;99846.81;1708834;83;20983;-60
2022/08/03 00:50:31;;;;;;;4.67;1.40;;;;;;;14.59;73.18;99846.19;1691877;83;20980;-60
2022/08/03 00:53:00;;;;;;;6.25;1.45;;;;;;;14.65;73.17;99850.22;1709359;81;21446;-59
2022/08/03 00:55:27;;;;;;;5.12;1.17;;;;;;;14.69;73.19;99845.12;1738058;81;20950;-60
2022/08/03 00:57:54;;;;;;;4.90;1.37;;;;;;;14.71;73.20;99849.83;1733844;81;21476;-60
2022/08/03 01:00:25;;;;;;;6.20;1.95;;;;;;;14.74;73.21;99852.26;1736067;81;20871;-59
2022/08/03 01:02:53;;;;;;;8.13;1.60;;;;;;;14.78;73.34;99847.17;1733072;81;21069;-59
2022/08/03 01:05:21;;;;;;;4.50;1.20;;;;;;;14.84;73.30;99844.62;1734983;80;21042;-60
2022/08/03 01:08:04;;;;;;;6.90;1.37;;;;;;;14.88;73.26;99837.78;1733021;81;20904;-59
2022/08/03 01:11:04;;;;;;;6.35;1.32;;;;;;;14.92;73.27;99837.94;1733137;81;20922;-59
2022/08/03 01:13:47;;;;;;;6.85;1.87;;;;;;;14.98;73.32;99840.20;1732947;81;20912;-60
2022/08/03 01:16:44;;;;;;;7.15;1.90;;;;;;;15.03;73.31;99835.11;1723953;81;21541;-60
2022/08/03 01:19:27;;;;;;;5.62;1.17;;;;;;;15.07;73.34;99830.02;1733242;81;21081;-60
2022/08/03 01:22:17;;;;;;;8.18;1.70;;;;;;;15.10;73.33;99832.00;1733335;81;20944;-59
2022/08/03 01:25:01;;;;;;;5.15;1.50;;;;;;;15.14;73.31;99831.33;1739913;80;20985;-59
2022/08/03 01:27:59;;;;;;;7.03;1.60;;;;;;;15.15;73.35;99832.55;1723583;81;20936;-60
2022/08/03 01:30:30;;;;;;;3.90;1.70;;;;;;;15.19;73.35;99830.08;1737510;81;21013;-60
2022/08/03 01:33:04;;;;;;;4.55;1.45;;;;;;;15.20;73.38;99828.29;1739176;81;21133;-59
2022/08/03 01:35:48;;;;;;;4.58;1.22;;;;;;;15.23;73.48;99828.09;1719772;81;21507;-59
2022/08/03 01:38:28;;;;;;;5.72;1.40;;;;;;;15.29;73.48;99827.72;1725417;81;20918;-60
2022/08/03 01:40:56;;;;;;;6.15;1.65;;;;;;;15.33;73.59;99823.92;1737329;81;20922;-59
2022/08/03 01:43:27;;;;;;;5.53;1.42;;;;;;;15.36;73.58;99826.36;1742319;81;20942;-59
2022/08/03 01:45:56;;;;;;;6.15;1.70;;;;;;;15.37;73.52;99820.14;1733482;81;21033;-59
2022/08/03 01:48:23;;;;;;;7.42;1.40;;;;;;;15.36;73.50;99819.78;1738848;81;21008;-59
2022/08/03 01:50:51;;;;;;;3.72;1.27;;;;;;;15.38;73.52;99824.47;1736718;81;20920;-59
2022/08/03 01:53:19;;;;;;;4.35;1.20;;;;;;;15.41;73.56;99824.27;1717963;81;20926;-59
2022/08/03 01:55:49;;;;;;;7.25;1.55;;;;;;;15.44;73.58;99824.06;1714427;81;20944;-60
2022/08/03 01:58:18;;;;;;;8.00;2.33;;;;;;;15.48;73.51;99821.23;1712566;82;21179;-60
2022/08/03 02:00:45;;;;;;;6.28;1.60;;;;;;;15.50;73.49;99821.98;1712314;82;20966;-60
2022/08/03 02:03:13;;;;;;;10.23;2.25;;;;;;;15.50;73.47;99819.34;1718338;81;21045;-60
2022/08/03 02:05:42;;;;;;;11.60;1.60;;;;;;;15.51;73.44;99817.08;1711814;81;20919;-60
2022/08/03 02:08:13;;;;;;;4.62;1.27;;;;;;;15.51;73.39;99818.39;1718060;83;20947;-60
2022/08/03 02:10:41;;;;;;;3.12;1.17;;;;;;;15.50;73.38;99810.14;1712517;81;21915;-60
2022/08/03 02:13:09;;;;;;;3.98;1.50;;;;;;;15.50;73.41;99817.55;1685290;83;20955;-59
2022/08/03 02:15:37;;;;;;;3.77;1.50;;;;;;;15.49;73.37;99807.12;1686713;83;20931;-59
2022/08/03 02:18:07;;;;;;;5.55;1.40;;;;;;;15.50;73.42;99807.51;1696492;83;21443;-59
2022/08/03 02:20:36;;;;;;;3.90;1.60;;;;;;;15.50;73.38;99807.51;1694561;82;21023;-59
2022/08/03 02:23:02;;;;;;;5.92;1.90;;;;;;;15.49;73.39;99807.98;1690005;83;21208;-59
2022/08/03 02:25:31;;;;;;;7.10;1.72;;;;;;;15.49;73.36;99804.48;1696187;83;20891;-59
2022/08/03 02:28:09;;;;;;;6.65;2.33;;;;;;;15.45;73.36;99804.69;1697218;82;21001;-60
2022/08/03 02:30:40;;;;;;;5.55;1.55;;;;;;;15.45;73.38;99803.86;1701549;82;21531;-60
2022/08/03 02:33:11;;;;;;;3.55;1.30;;;;;;;15.43;73.38;99809.23;1700591;83;21581;-59
2022/08/03 02:35:40;;;;;;;3.50;1.50;;;;;;;15.41;73.36;99797.96;1697153;83;21453;-60
2022/08/03 02:38:09;;;;;;;8.28;1.80;;;;;;;15.42;73.39;99804.06;1710983;81;20975;-59
2022/08/03 02:40:37;;;;;;;6.65;1.77;;;;;;;15.41;73.39;99801.07;1714243;82;20919;-59
2022/08/03 02:43:11;;;;;;;7.33;1.52;;;;;;;15.39;73.38;99794.58;1713421;83;21459;-60
2022/08/03 02:45:43;;;;;;;8.85;1.85;;;;;;;15.39;73.38;99799.84;1715298;81;20907;-59
2022/08/03 02:48:11;;;;;;;4.10;1.50;;;;;;;15.38;73.42;99790.27;1714042;81;21897;-59
2022/08/03 02:50:39;;;;;;;11.30;1.80;;;;;;;15.37;73.41;99794.30;1690345;83;21481;-59
2022/08/03 02:53:07;;;;;;;7.42;1.50;;;;;;;15.35;73.37;99783.90;1705912;81;21004;-60
2022/08/03 02:55:35;;;;;;;7.05;1.62;;;;;;;15.35;73.42;99789.16;1735327;81;20912;-60
2022/08/03 02:58:03;;;;;;;7.65;1.65;;;;;;;15.36;73.47;99783.42;1733157;81;20963;-59
2022/08/03 03:00:33;;;;;;;5.30;1.82;;;;;;;15.37;73.49;99785.94;1733066;81;21036;-60
2022/08/03 03:03:03;;;;;;;7.37;1.60;;;;;;;15.41;73.56;99790.06;1739124;81;21006;-60
2022/08/03 03:05:30;;;;;;;6.25;1.90;;;;;;;15.40;73.59;99788.39;1736311;81;20887;-60
2022/08/03 03:07:57;;;;;;;5.55;1.98;;;;;;;15.43;73.59;99790.81;1736155;81;26740;-59
2022/08/03 03:10:25;;;;;;;6.08;1.60;;;;;;;15.47;73.60;99795.87;1735380;81;20992;-59
2022/08/03 03:12:56;;;;;;;4.80;1.70;;;;;;;15.50;73.60;99795.67;1713366;81;21931;-60
2022/08/03 03:15:27;;;;;;;8.63;1.90;;;;;;;15.56;73.67;99800.52;1722222;82;20935;-59
2022/08/03 03:17:54;;;;;;;7.45;1.80;;;;;;;15.62;73.61;99800.09;1722226;81;20922;-60
2022/08/03 03:20:23;;;;;;;10.50;2.20;;;;;;;15.63;73.51;99793.91;1724667;82;20924;-59
2022/08/03 03:22:50;;;;;;;9.20;2.17;;;;;;;15.63;73.48;99786.02;1723830;82;20973;-60
2022/08/03 03:25:18;;;;;;;3.75;1.50;;;;;;;15.65;73.53;99792.00;1726052;82;21912;-60
2022/08/03 03:27:45;;;;;;;6.08;1.75;;;;;;;15.67;73.52;99782.22;1737804;81;20986;-59
2022/08/03 03:30:13;;;;;;;5.87;1.90;;;;;;;15.69;73.57;99793.52;1706575;83;20904;-60
2022/08/03 03:32:39;;;;;;;7.58;1.85;;;;;;;15.71;73.48;99791.64;1702406;83;21078;-59
2022/08/03 03:35:08;;;;;;;7.92;1.62;;;;;;;15.72;73.53;99794.63;1713765;82;21038;-60
2022/08/03 03:37:35;;;;;;;13.72;1.90;;;;;;;15.74;73.55;99795.38;1713616;82;21903;-60
2022/08/03 03:40:02;;;;;;;9.20;1.75;;;;;;;15.78;73.56;99792.89;1715424;82;20976;-60
2022/08/03 03:42:29;;;;;;;5.65;2.10;;;;;;;15.83;73.60;99796.55;1715219;82;20895;-60
2022/08/03 03:44:56;;;;;;;6.22;1.85;;;;;;;15.88;73.63;99799.23;1710611;82;20875;-60
2022/08/03 03:47:23;;;;;;;7.37;1.92;;;;;;;15.96;73.64;99792.58;1737798;81;21018;-59
2022/08/03 03:49:50;;;;;;;7.65;1.67;;;;;;;16.05;73.66;99793.30;1708507;82;21048;-59
2022/08/03 03:52:16;;;;;;;9.08;2.00;;;;;;;16.20;73.94;99802.75;1711823;82;20889;-60
2022/08/03 03:54:45;;;;;;;6.72;1.82;;;;;;;16.53;73.97;99801.35;1706402;83;21573;-60
2022/08/03 03:57:11;;;;;;;8.40;1.90;;;;;;;16.88;73.92;99800.65;1706508;83;20972;-59
2022/08/03 03:59:40;;;;;;;7.47;1.65;;;;;;;17.16;73.69;99795.04;1691826;83;20971;-60
2022/08/03 04:02:09;;;;;;;6.15;1.92;;;;;;;17.48;73.62;99803.71;1708479;82;21047;-60
2022/08/03 04:13:10;;;;;;;5.90;2.05;;;;;;;18.96;72.79;99806.37;1737672;80;20934;-60
2022/08/03 04:15:39;;;;;;;8.03;1.92;;;;;;;19.19;72.62;99811.14;1733981;81;21088;-60
2022/08/03 04:18:09;;;;;;;11.35;2.33;;;;;;;19.70;72.50;99811.78;1719924;82;20914;-60
2022/08/03 04:20:38;;;;;;;7.72;1.92;;;;;;;20.23;72.18;99805.55;1719599;82;20994;-60
2022/08/03 04:23:06;;;;;;;6.97;2.27;;;;;;;20.26;71.60;99810.59;1714856;82;20954;-60
2022/08/03 04:25:36;;;;;;;8.65;2.25;;;;;;;20.14;71.30;99809.84;1711213;82;20950;-60
2022/08/03 04:28:04;;;;;;;6.62;2.15;;;;;;;19.99;71.18;99809.80;1722479;82;21087;-60
2022/08/03 04:30:35;;;;;;;8.25;2.02;;;;;;;19.87;71.08;99816.50;1714778;82;20903;-60
2022/08/03 04:33:02;;;;;;;5.97;1.70;;;;;;;19.80;71.05;99818.00;1717370;82;21457;-60
2022/08/03 04:35:31;;;;;;;;;;;;;;;19.79;71.08;99818.95;1717174;82;20956;-60
2022/08/03 04:38:02;;;;;;;13.00;2.60;;;;;;;19.86;70.85;99822.78;1713748;82;20118;-60
2022/08/03 04:40:38;;;;;;;11.10;2.25;;;;;;;19.90;70.66;99825.51;1715360;82;21081;-60
2022/08/03 04:43:07;;;;;;;12.85;3.05;;;;;;;19.89;70.51;99829.14;1716413;81;20903;-61
2022/08/03 04:45:36;;;;;;;7.45;2.10;;;;;;;19.92;70.21;99825.88;1715613;82;20977;-60
2022/08/03 04:48:04;;;;;;;11.35;2.25;;;;;;;19.94;70.08;99824.79;1721752;82;20950;-60
2022/08/03 04:50:31;;;;;;;7.40;2.17;;;;;;;20.03;70.04;99828.47;1718146;82;20960;-60
2022/08/03 04:52:58;;;;;;;;;;;;;;;20.14;69.83;99825.73;1718226;82;21064;-60
2022/08/03 04:55:30;;;;;;;10.85;2.08;;;;;;;20.34;69.80;99822.20;1715723;82;20098;-61
2022/08/03 04:57:58;;;;;;;8.28;2.52;;;;;;;20.60;69.77;99823.59;1711161;82;20956;-60
2022/08/03 05:00:25;;;;;;;7.72;2.37;;;;;;;21.28;70.34;99826.39;1715572;82;20947;-61
2022/08/03 05:02:53;;;;;;;13.55;2.62;;;;;;;21.82;69.67;99822.37;1715136;82;21728;-61
2022/08/03 05:05:20;;;;;;;14.18;2.58;;;;;;;21.99;69.01;99828.77;1716365;82;21907;-61
2022/08/03 05:07:47;;;;;;;15.03;2.47;;;;;;;22.17;68.67;99827.53;1712062;82;20952;-61
2022/08/03 05:10:14;;;;;;;8.28;2.27;;;;;;;22.38;68.71;99830.86;1717261;82;20928;-61
2022/08/03 05:12:41;;;;;;;7.20;2.02;;;;;;;22.54;67.63;99816.41;1713622;82;20910;-60
2022/08/03 05:15:09;;;;;;;6.00;2.12;;;;;;;22.54;67.63;99816.41;1717206;82;20919;-61
2022/08/03 05:17:35;;;;;;;9.20;2.42;;;;;;;22.59;67.49;99835.11;1716662;82;21696;-60
2022/08/03 05:20:04;;;;;;;9.23;2.40;;;;;;;22.65;67.58;99833.19;1714601;82;26909;-61
2022/08/03 05:22:30;;;;;;;11.22;2.33;;;;;;;22.65;67.22;99835.34;1715036;81;20958;-61
2022/08/03 05:24:57;;;;;;;14.55;2.25;;;;;;;22.62;66.88;99840.14;1718695;82;20911;-61
2022/08/03 05:27:23;;;;;;;8.68;2.87;;;;;;;22.62;66.86;99838.80;1717192;82;20946;-61
2022/08/03 05:29:50;;;;;;;6.25;2.17;;;;;;;22.71;66.72;99848.56;1712870;82;21071;-61
2022/08/03 05:32:17;;;;;;;;;;;;;;;22.79;66.47;99842.84;1718922;82;20847;-61
2022/08/03 05:34:44;;;;;;;8.18;1.92;;;;;;;22.87;65.52;99834.62;1721483;82;20081;-62
2022/08/03 05:37:11;;;;;;;12.60;2.70;;;;;;;22.97;65.95;99844.77;1699259;82;20910;-61
2022/08/03 05:39:38;;;;;;;16.95;2.45;;;;;;;23.21;65.95;99841.01;1715200;82;20941;-61
2022/08/03 05:42:04;;;;;;;13.93;2.60;;;;;;;23.54;65.67;99845.83;1696807;83;22247;-60
2022/08/03 05:44:31;;;;;;;10.95;2.55;;;;;;;23.60;64.89;99848.70;1696502;83;23615;-60
2022/08/03 05:46:58;;;;;;;12.23;2.45;;;;;;;23.56;64.66;99843.85;1695525;83;20988;-60
2022/08/03 05:49:25;;;;;;;14.75;2.25;;;;;;;23.61;64.66;99850.40;1692161;83;20931;-61
2022/08/03 05:51:52;;;;;;;23.45;3.10;;;;;;;23.83;64.56;99846.42;1696053;83;20941;-61
2022/08/03 05:54:18;;;;;;;;;;;;;;;24.44;64.34;99850.53;1705445;83;21152;-62
2022/08/03 05:56:44;;;;;;;;;;;;;;;25.10;63.87;99842.29;1698314;83;20095;-62
2022/08/03 05:59:11;;;;;;;8.65;2.25;;;;;;;26.19;63.96;99840.70;1699976;83;20127;-62
2022/08/03 06:01:38;;;;;;;49.10;5.60;;;;;;;27.25;63.49;99832.74;1698795;83;20988;-61
2022/08/03 06:04:05;;;;;;;19.65;2.98;;;;;;;28.11;62.70;99843.63;1699905;82;20939;-62
2022/08/03 06:06:31;;;;;;;48.45;9.18;;;;;;;28.83;62.19;99838.66;1719836;82;21058;-62
2022/08/03 06:08:58;;;;;;;12.03;2.05;;;;;;;29.52;61.71;99836.83;1715407;82;20978;-62
2022/08/03 06:11:25;;;;;;;12.80;2.92;;;;;;;30.24;60.93;99833.11;1718369;82;21020;-62
2022/08/03 06:13:51;;;;;;;7.78;2.87;;;;;;;30.60;59.93;99832.06;1715404;82;21477;-61
2022/08/03 06:16:18;;;;;;;21.27;2.75;;;;;;;30.89;59.03;99839.05;1717666;82;20977;-60
2022/08/03 06:18:45;;;;;;;14.18;2.75;;;;;;;31.14;58.18;99834.77;1717304;82;21049;-62
2022/08/03 06:21:12;;;;;;;12.85;2.55;;;;;;;31.40;57.53;99842.13;1722949;82;20904;-61
2022/08/03 06:23:41;;;;;;;12.15;1.95;;;;;;;31.72;56.85;99839.66;1715322;82;20946;-61
2022/08/03 06:26:07;;;;;;;8.30;1.80;;;;;;;31.98;56.08;99842.06;1709876;82;21437;-63
2022/08/03 06:28:34;;;;;;;6.78;1.92;;;;;;;32.15;55.13;99841.93;1715999;82;20877;-62
2022/08/03 06:31:02;;;;;;;21.45;2.85;;;;;;;32.30;54.33;99849.30;1710697;82;21047;-63
2022/08/03 06:33:29;;;;;;;11.75;2.67;;;;;;;32.45;53.58;99852.27;1718426;82;21444;-63
2022/08/03 06:35:55;;;;;;;10.05;2.17;;;;;;;32.69;53.05;99851.61;1718664;82;20947;-63
2022/08/03 06:38:22;;;;;;;9.15;2.45;;;;;;;33.10;52.43;99843.63;1715281;81;21527;-63
2022/08/03 06:40:49;;;;;;;7.28;1.82;;;;;;;33.40;51.74;99844.39;1715298;82;21506;-62
2022/08/03 06:43:15;;;;;;;7.50;2.12;;;;;;;33.63;50.86;99844.66;1710695;82;21045;-64
2022/08/03 06:45:42;;;;;;;20.35;2.42;;;;;;;34.00;50.06;99842.08;1708812;82;20869;-63
2022/08/03 06:48:11;;;;;;;27.48;2.80;;;;;;;34.11;49.42;99844.58;1716706;82;20912;-63
2022/08/03 06:50:44;;;;;;;10.55;2.15;;;;;;;34.25;48.62;99839.86;1696182;82;21600;-62
2022/08/03 06:53:09;;;;;;;11.85;2.10;;;;;;;34.14;46.71;99847.38;1708412;82;20966;-63
2022/08/03 06:55:40;;;;;;;5.12;1.45;;;;;;;33.76;46.33;99845.62;1709069;83;21067;-62
2022/08/03 06:58:09;;;;;;;12.90;2.92;;;;;;;33.60;45.75;99839.69;1708479;82;20938;-63
2022/08/03 07:00:36;;;;;;;17.42;2.20;;;;;;;33.46;44.77;99843.52;1717915;82;20957;-62
2022/08/03 07:03:03;;;;;;;35.43;3.83;;;;;;;33.35;44.83;99845.56;1733199;81;20974;-62
2022/08/03 07:05:32;;;;;;;5.85;1.40;;;;;;;33.75;43.95;99839.38;1731976;81;21561;-63
2022/08/03 07:08:00;;;;;;;6.33;1.65;;;;;;;33.81;43.24;99841.20;1728960;81;21008;-62
2022/08/03 07:10:27;;;;;;;13.50;2.47;;;;;;;33.87;43.07;99842.19;1732636;81;20906;-62
2022/08/03 07:12:56;;;;;;;10.35;1.90;;;;;;;34.06;42.18;99846.63;1728798;81;20955;-62
2022/08/03 07:15:25;;;;;;;10.10;1.57;;;;;;;34.03;41.91;99844.34;1713271;81;20942;-62
2022/08/03 07:17:52;;;;;;;5.33;1.60;;;;;;;34.08;40.97;99844.50;1732973;81;20967;-62
2022/08/03 07:20:19;;;;;;;12.03;1.80;;;;;;;34.12;40.95;99842.73;1728138;81;21043;-62
2022/08/03 07:22:46;;;;;;;5.05;1.90;;;;;;;34.20;40.14;99841.05;1730535;81;21430;-62
2022/08/03 07:25:13;;;;;;;8.73;1.55;;;;;;;34.21;40.02;99844.09;1728522;81;21015;-62
2022/08/03 07:27:45;;;;;;;11.35;1.60;;;;;;;34.32;39.37;99843.34;1730145;81;20928;-62
2022/08/03 07:30:14;;;;;;;8.98;1.40;;;;;;;34.31;39.21;99837.60;1725300;82;20986;-63
2022/08/03 07:32:41;;;;;;;6.62;1.37;;;;;;;34.26;38.82;99845.60;1726333;81;21046;-61
2022/08/03 07:35:09;;;;;;;17.20;2.92;;;;;;;33.23;38.01;99822.44;1722631;81;20932;-61
2022/08/03 07:37:37;;;;;;;7.35;1.70;;;;;;;33.23;38.01;99822.44;1729076;81;20935;-60
2022/08/03 07:40:06;;;;;;;7.22;1.75;;;;;;;32.86;37.48;99853.84;1733890;81;20948;-62
2022/08/03 07:42:32;;;;;;;12.78;1.35;;;;;;;32.39;37.28;99850.42;1729982;81;20928;-62
2022/08/03 07:44:59;;;;;;;6.12;2.10;;;;;;;31.98;37.12;99848.81;1724949;81;21087;-60
2022/08/03 07:47:30;;;;;;;4.08;1.40;;;;;;;31.70;37.13;99848.47;1728866;81;20926;-61
2022/08/03 07:49:57;;;;;;;7.08;1.55;;;;;;;31.47;36.83;99839.95;1724130;81;20955;-61
2022/08/03 07:55:09;;;;;;;5.17;1.70;;;;;;;31.08;36.22;99848.24;1730646;81;21541;-61
2022/08/03 07:57:36;;;;;;;7.78;1.47;;;;;;;30.60;36.29;99845.54;1739664;80;21111;-62
2022/08/03 08:00:14;;;;;;;9.20;1.57;;;;;;;30.48;35.96;99838.02;1733486;80;21600;-60
2022/08/03 08:02:42;;;;;;;9.50;2.08;;;;;;;29.87;35.25;99840.48;1733905;81;20948;-60
2022/08/03 08:05:09;;;;;;;8.03;1.98;;;;;;;29.40;35.37;99837.86;1736614;81;20906;-62
2022/08/03 08:07:37;;;;;;;5.28;1.90;;;;;;;29.19;36.03;99847.59;1732670;81;20962;-61
2022/08/03 08:10:07;;;;;;;10.50;1.75;;;;;;;29.30;36.08;99842.22;1734127;81;21113;-62
2022/08/03 08:12:34;;;;;;;9.70;2.60;;;;;;;29.28;35.80;99843.44;1732856;81;20925;-62
2022/08/03 08:15:01;;;;;;;23.07;3.90;;;;;;;29.35;36.32;99836.25;1733084;81;20934;-62
2022/08/03 08:17:28;;;;;;;4.55;1.47;;;;;;;29.59;36.44;99842.59;1733008;81;21533;-64
2022/08/03 08:19:55;;;;;;;7.10;1.87;;;;;;;29.76;36.54;99838.32;1730772;81;20942;-62
2022/08/03 08:22:22;;;;;;;6.97;1.62;;;;;;;29.95;36.40;99843.03;1729116;81;21036;-62
2022/08/03 08:24:49;;;;;;;17.40;2.17;;;;;;;29.81;36.15;99841.27;1735038;81;20887;-62
2022/08/03 08:27:15;;;;;;;;;;;;;;;29.76;36.09;99843.70;1736257;81;20944;-62
2022/08/03 08:29:42;;;;;;;5.55;1.60;;;;;;;29.75;35.95;99842.05;1733423;81;20460;-61
2022/08/03 08:32:10;;;;;;;;;;;;;;;29.77;36.35;99842.67;1734700;81;21541;-61
2022/08/03 08:34:37;;;;;;;3.75;1.27;;;;;;;29.78;36.16;99843.01;1730971;81;21055;-61
2022/08/03 08:37:04;;;;;;;4.25;1.22;;;;;;;29.77;36.35;99839.97;1738419;81;20920;-61
2022/08/03 08:39:31;;;;;;;4.97;1.37;;;;;;;29.96;36.47;99842.00;1731014;81;20978;-62
2022/08/03 08:41:59;;;;;;;8.28;1.50;;;;;;;30.04;36.49;99843.20;1735476;81;21043;-61
2022/08/03 08:44:25;;;;;;;4.90;1.52;;;;;;;30.14;36.32;99840.66;1733898;81;21608;-61
2022/08/03 08:46:54;;;;;;;5.83;1.70;;;;;;;30.13;36.35;99836.31;1733252;81;21045;-61
2022/08/03 08:49:24;;;;;;;6.30;1.52;;;;;;;30.14;36.31;99836.62;1732602;81;21046;-61
2022/08/03 08:51:54;;;;;;;4.80;1.50;;;;;;;30.04;36.31;99836.47;1703075;83;20946;-61
2022/08/03 08:54:22;;;;;;;4.45;1.35;;;;;;;30.08;36.39;99837.75;1713245;81;20902;-61
2022/08/03 08:56:55;;;;;;;8.98;1.57;;;;;;;30.10;36.06;99840.23;1705494;83;20962;-61
2022/08/03 08:59:22;;;;;;;6.55;1.35;;;;;;;30.02;36.18;99830.95;1713020;81;22025;-61
2022/08/03 09:01:49;;;;;;;20.48;4.35;;;;;;;29.97;36.07;99834.75;1733919;80;21448;-62
2022/08/03 09:04:15;;;;;;;;;;;;;;;29.90;36.06;99836.05;1735371;81;20946;-61
2022/08/03 09:06:43;;;;;;;2.47;1.20;;;;;;;29.93;35.97;99831.63;1735086;80;20138;-61
2022/08/03 09:09:10;;;;;;;10.05;1.55;;;;;;;29.94;36.08;99830.61;1733018;80;20995;-61
2022/08/03 09:11:44;;;;;;;3.83;1.47;;;;;;;30.03;36.16;99833.98;1736889;81;21480;-61
2022/08/03 09:14:11;;;;;;;4.03;1.47;;;;;;;30.11;35.87;99829.28;1735409;81;21074;-61
2022/08/03 09:16:41;;;;;;;11.50;2.92;;;;;;;30.03;35.99;99830.77;1734023;81;20980;-61
2022/08/03 09:19:13;;;;;;;9.85;1.20;;;;;;;30.05;36.09;99837.29;1732962;81;20926;-61
2022/08/03 09:21:40;;;;;;;11.85;1.52;;;;;;;30.00;35.89;99836.55;1737410;81;20939;-61
2022/08/03 09:24:07;;;;;;;6.12;1.77;;;;;;;30.02;35.96;99833.13;1726353;81;21040;-62
2022/08/03 09:26:39;;;;;;;5.85;1.30;;;;;;;29.94;35.77;99830.61;1724802;82;21560;-62
2022/08/03 09:29:10;;;;;;;6.17;1.45;;;;;;;29.98;35.80;99834.56;1694176;82;21038;-62
2022/08/03 09:31:42;;;;;;;3.08;1.17;;;;;;;29.86;35.72;99830.23;1709916;81;20939;-61
2022/08/03 09:34:12;;;;;;;1.35;1.02;;;;;;;29.83;35.86;99837.36;1708560;82;21511;-61
2022/08/03 09:36:43;;;;;;;4.25;1.55;;;;;;;29.86;35.74;99830.75;1710289;82;21087;-61
2022/08/03 09:39:13;;;;;;;2.22;1.30;;;;;;;29.91;35.65;99833.67;1711345;82;21300;-61
2022/08/03 09:41:44;;;;;;;3.33;1.30;;;;;;;29.83;35.58;99836.53;1732075;81;20912;-61
2022/08/03 09:44:11;;;;;;;3.17;1.37;;;;;;;29.74;35.54;99840.37;1733560;81;20990;-62
2022/08/03 09:46:53;;;;;;;2.12;1.10;;;;;;;29.80;35.71;99840.93;1741222;81;20931;-63
2022/08/03 09:49:20;;;;;;;5.58;1.15;;;;;;;29.81;35.59;99839.41;1734320;81;21852;-62
2022/08/03 09:51:48;;;;;;;2.45;1.27;;;;;;;29.81;35.50;99835.89;1735068;81;21512;-62
2022/08/03 09:54:27;;;;;;;5.22;1.60;;;;;;;29.84;35.43;99838.19;1736521;81;21393;-61
2022/08/03 09:56:54;;;;;;;7.33;1.70;;;;;;;29.83;35.41;99839.22;1734730;81;20998;-61
2022/08/03 09:59:29;;;;;;;4.03;1.40;;;;;;;29.68;35.31;99838.45;1737181;80;20958;-62
2022/08/03 10:01:58;;;;;;;7.53;1.40;;;;;;;29.54;35.40;99840.99;1735670;81;21042;-62
2022/08/03 10:04:26;;;;;;;2.37;1.30;;;;;;;29.62;35.54;99840.86;1708366;81;21433;-62
2022/08/03 10:07:08;;;;;;;3.58;1.67;;;;;;;29.69;35.47;99840.11;1718982;81;20937;-62
2022/08/03 10:09:36;;;;;;;6.08;1.42;;;;;;;29.68;35.40;99843.84;1715265;82;20961;-62
2022/08/03 10:12:12;;;;;;;10.05;1.95;;;;;;;29.75;35.45;99839.36;1709558;81;20920;-62
2022/08/03 10:14:41;;;;;;;3.67;1.37;;;;;;;29.88;35.39;99839.44;1722940;82;21084;-62
2022/08/03 10:17:09;;;;;;;66.02;7.92;;;;;;;29.81;35.36;99833.20;1711542;82;20961;-62
2022/08/03 10:19:36;;;;;;;6.95;2.12;;;;;;;29.84;35.53;99835.49;1712899;82;21014;-62
2022/08/03 10:22:08;;;;;;;44.40;4.45;;;;;;;30.05;35.65;99838.15;1718383;82;21677;-62
2022/08/03 10:24:35;;;;;;;11.10;2.70;;;;;;;30.18;35.29;99829.83;1711235;82;20962;-62
2022/08/03 10:27:06;;;;;;;17.00;2.17;;;;;;;30.02;35.19;99830.95;1734603;81;21673;-62
2022/08/03 10:29:41;;;;;;;6.20;2.02;;;;;;;29.98;35.24;99831.05;1737274;81;20954;-62
2022/08/03 10:32:13;;;;;;;6.70;1.60;;;;;;;30.06;35.32;99829.03;1736789;81;20997;-62
2022/08/03 10:34:42;;;;;;;2.58;1.22;;;;;;;30.15;35.11;99830.23;1739603;81;21718;-62
2022/08/03 10:37:11;;;;;;;4.75;1.60;;;;;;;30.14;34.99;99827.20;1738093;81;20974;-61
2022/08/03 10:39:52;;;;;;;4.35;1.20;;;;;;;30.07;34.92;99827.99;1740330;81;21066;-62
2022/08/03 10:42:11;;;;;;;5.22;1.70;;;;;;;30.09;34.89;99829.16;1742986;81;21005;-61
2022/08/03 10:44:40;;;;;;;4.28;1.30;;;;;;;30.11;34.84;99829.28;1737040;80;20975;-62
2022/08/03 10:47:09;;;;;;;4.22;1.72;;;;;;;30.07;34.43;99827.17;1735437;81;22162;-61
2022/08/03 10:49:37;;;;;;;4.22;1.57;;;;;;;29.88;34.53;99828.68;1734183;81;20983;-63
2022/08/03 10:52:05;;;;;;;4.15;1.40;;;;;;;29.82;34.38;99829.47;1733679;81;21038;-62
2022/08/03 10:57:33;;;;;;;3.72;1.55;;;;;;;29.72;34.26;99827.13;1732050;81;21406;-61
2022/08/03 11:00:01;;;;;;;7.75;1.55;;;;;;;29.65;33.93;99824.36;1729168;81;21523;-61
2022/08/03 11:02:58;;;;;;;7.58;2.17;;;;;;;29.51;34.09;99825.23;1725276;81;20937;-61
2022/08/03 11:05:28;;;;;;;2.55;1.30;;;;;;;29.61;34.23;99830.31;1631620;86;21954;-61
2022/08/03 11:08:30;;;;;;;8.05;2.12;;;;;;;29.81;34.21;99819.73;1645998;84;21039;-61
2022/08/03 11:11:07;;;;;;;3.50;1.57;;;;;;;29.94;34.24;99818.50;1631953;85;20978;-61
2022/08/03 11:13:35;;;;;;;3.47;1.52;;;;;;;29.93;34.08;99822.20;1628274;85;20971;-61
2022/08/03 11:16:06;;;;;;;4.30;1.50;;;;;;;29.84;33.95;99816.66;1616996;87;20990;-61
2022/08/03 11:18:33;;;;;;;3.85;1.50;;;;;;;29.81;34.14;99822.43;1651143;84;22097;-61
2022/08/03 11:21:00;;;;;;;3.70;1.62;;;;;;;29.93;34.12;99814.64;1662484;84;20957;-61
2022/08/03 11:23:52;;;;;;;15.20;2.80;;;;;;;29.86;33.73;99814.61;1630221;86;21018;-61
2022/08/03 11:26:23;;;;;;;10.68;1.82;;;;;;;29.85;33.91;99807.54;1635484;85;20938;-61
2022/08/03 11:28:50;;;;;;;14.55;1.92;;;;;;;29.96;34.13;99807.00;1632716;86;21225;-61
2022/08/03 11:31:29;;;;;;;10.05;1.90;;;;;;;29.99;33.90;99805.78;1632069;86;21946;-61
2022/08/03 11:34:07;;;;;;;5.67;1.87;;;;;;;30.01;33.92;99805.90;1636750;85;21564;-61
2022/08/03 11:37:21;;;;;;;21.95;2.95;;;;;;;30.06;33.92;99807.49;1629846;86;21523;-61
2022/08/03 11:39:51;;;;;;;6.72;2.20;;;;;;;30.11;33.94;99807.73;1638246;86;20981;-61
2022/08/03 11:42:29;;;;;;;6.35;1.52;;;;;;;30.13;33.85;99806.70;1684957;82;21050;-62
2022/08/03 11:44:58;;;;;;;7.53;1.45;;;;;;;30.10;33.62;99805.23;1713174;82;21138;-61
2022/08/03 11:47:28;;;;;;;24.23;3.50;;;;;;;30.08;33.54;99800.06;1719784;81;21075;-61
2022/08/03 11:50:00;;;;;;;11.90;3.05;;;;;;;30.04;33.52;99797.95;1716960;82;21948;-61
2022/08/03 11:52:39;;;;;;;3.12;1.52;;;;;;;30.02;33.56;99800.83;1714547;81;20938;-61
2022/08/03 11:55:12;;;;;;;3.08;1.60;;;;;;;30.01;33.47;99801.86;1709480;82;20963;-61
2022/08/03 11:57:39;;;;;;;6.25;1.70;;;;;;;30.03;33.48;99802.50;1733945;81;21111;-62
2022/08/03 12:00:26;;;;;;;4.62;1.52;;;;;;;30.01;33.44;99801.86;1730861;81;21856;-61